Time;durP1;ratioP1;P1;durP2;ratioP2;P2;SDS_P1;SDS_P2;PMS_P1;PMS_P2;Temp;Humidity;BMP_temperature;BMP_pressure;BME280_temperature;BME280_humidity;BME280_pressure;Samples;Min_cycle;Max_cycle;Signal;HPM_P1;HPM_P2
2023/09/02 00:00:03;;;;;;;7.57;4.68;;;15.70;99.90;;;;;;5090205;28;20024;-74
2023/09/02 00:02:28;;;;;;;12.18;5.53;;;15.70;99.90;;;;;;5111075;28;20020;-74
2023/09/02 00:04:57;;;;;;;11.02;6.13;;;15.60;99.90;;;;;;5091701;28;20128;-73
2023/09/02 00:07:23;;;;;;;14.52;5.45;;;15.60;99.90;;;;;;5091413;28;20096;-74
2023/09/02 00:09:48;;;;;;;9.00;6.03;;;15.60;99.90;;;;;;5092363;28;20036;-74
2023/09/02 00:12:14;;;;;;;14.98;6.13;;;15.50;99.90;;;;;;5110909;28;20024;-74
2023/09/02 00:14:40;;;;;;;14.35;6.50;;;15.50;99.90;;;;;;5091715;28;20020;-74
2023/09/02 00:17:05;;;;;;;9.30;5.90;;;15.40;99.90;;;;;;5111337;28;20062;-74
2023/09/02 00:19:31;;;;;;;7.10;5.82;;;15.40;99.90;;;;;;5090959;28;20020;-73
2023/09/02 00:21:57;;;;;;;8.93;6.05;;;15.50;99.90;;;;;;5111643;28;20093;-73
2023/09/02 00:24:22;;;;;;;11.75;6.32;;;15.50;99.90;;;;;;5093067;28;20032;-73
2023/09/02 00:26:51;;;;;;;7.63;6.25;;;15.50;99.90;;;;;;5091498;28;20021;-73
2023/09/02 00:29:17;;;;;;;9.38;6.85;;;15.50;99.90;;;;;;5092677;28;20020;-73
2023/09/02 00:31:42;;;;;;;9.18;6.10;;;15.40;99.90;;;;;;5092441;28;20067;-74
2023/09/02 00:34:08;;;;;;;8.55;6.50;;;15.30;99.90;;;;;;5090623;28;20032;-73
2023/09/02 00:36:34;;;;;;;9.98;6.20;;;15.40;99.90;;;;;;5091868;28;20040;-74
2023/09/02 00:39:00;;;;;;;8.80;6.50;;;15.40;99.90;;;;;;5093307;28;20034;-73
2023/09/02 00:41:37;;;;;;;9.25;6.13;;;15.40;99.90;;;;;;5092527;28;20055;-74
2023/09/02 00:44:07;;;;;;;10.68;6.13;;;15.40;99.90;;;;;;5092599;28;20054;-73
2023/09/02 00:46:48;;;;;;;17.08;5.85;;;15.40;99.90;;;;;;5093177;28;20020;-74
2023/09/02 00:49:17;;;;;;;7.72;5.93;;;15.40;99.90;;;;;;5113380;28;20036;-74
2023/09/02 00:51:43;;;;;;;9.25;6.03;;;15.30;99.90;;;;;;5096008;28;20066;-74
2023/09/02 00:54:08;;;;;;;6.68;5.13;;;15.40;99.90;;;;;;5094774;28;20036;-74
2023/09/02 00:56:37;;;;;;;7.72;6.10;;;15.30;99.90;;;;;;5113932;28;20040;-74
2023/09/02 00:59:04;;;;;;;15.60;5.22;;;15.40;99.90;;;;;;5113958;28;20044;-74
2023/09/02 01:01:32;;;;;;;7.82;5.30;;;15.30;99.90;;;;;;5096804;28;20035;-74
2023/09/02 01:03:59;;;;;;;6.53;5.78;;;15.40;99.90;;;;;;5114187;28;20078;-73
2023/09/02 01:06:25;;;;;;;12.48;5.53;;;15.30;99.90;;;;;;5092963;28;20032;-74
2023/09/02 01:08:51;;;;;;;10.20;4.97;;;15.20;99.90;;;;;;5092122;28;20047;-74
2023/09/02 01:11:17;;;;;;;7.80;5.55;;;15.30;99.90;;;;;;5095075;28;20024;-74
2023/09/02 01:13:43;;;;;;;8.95;4.85;;;15.30;99.90;;;;;;5114309;28;20032;-73
2023/09/02 01:16:11;;;;;;;6.57;5.38;;;15.30;99.90;;;;;;5114251;28;20084;-74
2023/09/02 01:18:37;;;;;;;6.30;4.53;;;15.30;99.90;;;;;;5094966;28;20080;-74
2023/09/02 01:21:17;;;;;;;6.68;4.97;;;15.20;99.90;;;;;;5094507;28;20050;-74
2023/09/02 01:24:14;;;;;;;11.50;5.82;;;15.20;99.90;;;;;;5094902;28;20047;-75
2023/09/02 01:27:13;;;;;;;10.75;5.32;;;15.20;99.90;;;;;;5113592;28;20008;-73
2023/09/02 01:30:12;;;;;;;10.23;5.15;;;15.30;99.90;;;;;;5091255;28;20016;-74
2023/09/02 01:32:43;;;;;;;9.90;5.10;;;15.20;99.90;;;;;;5112355;28;20016;-74
2023/09/02 01:35:14;;;;;;;6.68;5.07;;;15.30;99.90;;;;;;5093068;28;20050;-74
2023/09/02 01:37:45;;;;;;;6.28;5.07;;;15.10;99.90;;;;;;5088922;28;21028;-74
2023/09/02 01:40:21;;;;;;;6.55;4.78;;;15.20;99.90;;;;;;5113224;28;20030;-74
2023/09/02 01:42:56;;;;;;;5.60;4.70;;;15.10;99.90;;;;;;5091759;28;20095;-74
2023/09/02 01:45:24;;;;;;;7.18;4.30;;;15.00;99.90;;;;;;5112924;28;20008;-73
2023/09/02 01:47:54;;;;;;;7.20;4.03;;;15.10;99.90;;;;;;5088189;28;20127;-74
2023/09/02 01:50:23;;;;;;;6.53;4.10;;;15.10;99.90;;;;;;5110549;28;20020;-74
2023/09/02 01:52:52;;;;;;;6.03;4.90;;;15.10;99.90;;;;;;5112815;28;20046;-74
2023/09/02 01:55:22;;;;;;;6.25;4.50;;;15.10;99.90;;;;;;5095246;28;20017;-74
2023/09/02 01:57:48;;;;;;;8.40;5.00;;;15.10;99.90;;;;;;5113082;28;20043;-74
2023/09/02 02:00:17;;;;;;;7.15;5.00;;;15.10;99.90;;;;;;5094062;28;20020;-74
2023/09/02 02:02:43;;;;;;;9.25;5.82;;;15.00;99.90;;;;;;5093818;28;20039;-75
2023/09/02 02:05:19;;;;;;;9.27;5.75;;;15.00;99.90;;;;;;5095103;28;20013;-74
2023/09/02 02:07:52;;;;;;;8.40;6.75;;;15.00;99.90;;;;;;5094794;28;20020;-74
2023/09/02 02:10:24;;;;;;;10.15;6.90;;;15.00;99.90;;;;;;5111754;28;20024;-73
2023/09/02 02:12:52;;;;;;;9.90;6.63;;;14.90;99.90;;;;;;5112841;28;20020;-74
2023/09/02 02:15:18;;;;;;;7.78;5.70;;;15.00;99.90;;;;;;5094919;28;20020;-74
2023/09/02 02:17:47;;;;;;;9.55;5.93;;;14.90;99.90;;;;;;5112748;28;20105;-74
2023/09/02 02:20:13;;;;;;;9.23;6.22;;;15.00;99.90;;;;;;5092962;28;20028;-74
2023/09/02 02:22:38;;;;;;;7.90;6.28;;;15.00;99.90;;;;;;5094238;28;20046;-74
2023/09/02 02:25:04;;;;;;;10.55;6.63;;;15.00;99.90;;;;;;5093151;28;20051;-75
2023/09/02 02:27:30;;;;;;;12.13;5.82;;;14.90;99.90;;;;;;5093756;28;20024;-74
2023/09/02 02:29:57;;;;;;;7.93;5.50;;;15.00;99.90;;;;;;5112100;28;20135;-74
2023/09/02 02:32:25;;;;;;;8.43;5.72;;;15.00;99.90;;;;;;5094050;28;20031;-73
2023/09/02 02:34:53;;;;;;;8.07;5.65;;;14.90;99.90;;;;;;5112522;28;20138;-74
2023/09/02 02:37:18;;;;;;;7.80;5.85;;;14.90;99.90;;;;;;5094296;28;20036;-73
2023/09/02 02:39:44;;;;;;;8.23;5.03;;;15.00;99.90;;;;;;5094469;28;20563;-73
2023/09/02 02:42:10;;;;;;;8.07;5.07;;;15.00;99.90;;;;;;5092322;28;20040;-74
2023/09/02 02:44:35;;;;;;;9.05;5.28;;;14.80;99.90;;;;;;5112630;28;20460;-73
2023/09/02 02:47:01;;;;;;;8.02;5.80;;;14.90;99.90;;;;;;5089006;28;20032;-74
2023/09/02 02:49:27;;;;;;;8.57;5.43;;;14.90;99.90;;;;;;5094031;28;20016;-74
2023/09/02 02:51:53;;;;;;;6.72;5.15;;;14.90;99.90;;;;;;5112677;28;20040;-74
2023/09/02 02:54:19;;;;;;;11.38;5.70;;;14.90;99.90;;;;;;5087567;28;20116;-74
2023/09/02 02:56:45;;;;;;;8.00;5.38;;;15.00;99.90;;;;;;5111904;28;20031;-75
2023/09/02 02:59:10;;;;;;;8.80;5.72;;;14.90;99.90;;;;;;5092316;28;20080;-74
2023/09/02 03:01:41;;;;;;;9.60;5.13;;;14.90;99.90;;;;;;5111121;28;20043;-74
2023/09/02 03:04:12;;;;;;;8.73;4.68;;;15.00;99.90;;;;;;5092299;28;20211;-74
2023/09/02 03:06:41;;;;;;;7.53;5.57;;;15.00;99.90;;;;;;5091070;28;20024;-74
2023/09/02 03:09:07;;;;;;;8.20;5.72;;;15.00;99.90;;;;;;5091234;28;20081;-74
2023/09/02 03:11:32;;;;;;;7.45;5.32;;;14.90;99.90;;;;;;5111520;28;20075;-74
2023/09/02 03:13:59;;;;;;;8.85;5.70;;;15.00;99.90;;;;;;5110423;28;20024;-74
2023/09/02 03:16:24;;;;;;;7.25;5.95;;;15.00;99.90;;;;;;5090568;28;20024;-73
2023/09/02 03:18:51;;;;;;;10.13;6.00;;;15.10;99.90;;;;;;5111956;28;20045;-74
2023/09/02 03:21:16;;;;;;;9.13;6.05;;;15.10;99.90;;;;;;5110563;28;20043;-74
2023/09/02 03:23:42;;;;;;;9.15;5.65;;;15.10;99.90;;;;;;5111313;28;20436;-74
2023/09/02 03:26:10;;;;;;;8.55;6.22;;;15.10;99.90;;;;;;5090192;28;20051;-73
2023/09/02 03:28:36;;;;;;;8.55;5.57;;;15.00;99.90;;;;;;5092552;28;20032;-74
2023/09/02 03:31:11;;;;;;;7.18;5.55;;;15.10;99.90;;;;;;5093776;28;20035;-74
2023/09/02 03:33:37;;;;;;;10.70;6.63;;;15.10;99.90;;;;;;5111122;28;20024;-73
2023/09/02 03:36:04;;;;;;;7.78;5.40;;;15.10;99.90;;;;;;5093472;28;20052;-74
2023/09/02 03:38:32;;;;;;;9.18;6.63;;;15.00;99.90;;;;;;5092489;28;20024;-74
2023/09/02 03:40:58;;;;;;;11.80;6.47;;;15.00;99.90;;;;;;5091516;28;20046;-73
2023/09/02 03:43:23;;;;;;;12.90;7.50;;;15.10;99.90;;;;;;5091947;28;20044;-74
2023/09/02 03:45:52;;;;;;;15.70;7.22;;;15.00;99.90;;;;;;5092200;28;20039;-74
2023/09/02 03:48:19;;;;;;;11.07;6.68;;;15.00;99.90;;;;;;5093019;28;20034;-74
2023/09/02 03:51:12;;;;;;;10.43;6.60;;;15.00;99.90;;;;;;5093154;28;20217;-74
2023/09/02 03:53:41;;;;;;;7.40;5.63;;;15.00;99.90;;;;;;5093675;28;20023;-74
2023/09/02 03:56:07;;;;;;;9.63;6.15;;;15.00;99.90;;;;;;5093199;28;20042;-74
2023/09/02 03:58:34;;;;;;;9.07;5.72;;;15.10;99.90;;;;;;5111204;28;20059;-74
2023/09/02 04:01:00;;;;;;;7.13;5.75;;;15.00;99.90;;;;;;5086889;28;20032;-74
2023/09/02 04:03:26;;;;;;;9.75;6.55;;;15.00;99.90;;;;;;5110648;28;20046;-73
2023/09/02 04:05:53;;;;;;;10.60;6.43;;;15.00;99.90;;;;;;5093333;28;20683;-74
2023/09/02 04:08:21;;;;;;;11.07;5.78;;;15.00;99.90;;;;;;5093037;28;20032;-74
2023/09/02 04:10:51;;;;;;;8.30;6.45;;;15.00;99.90;;;;;;5110661;28;20034;-74
2023/09/02 04:13:18;;;;;;;9.88;6.10;;;15.00;99.90;;;;;;5093195;28;20024;-74
2023/09/02 04:15:44;;;;;;;7.82;5.80;;;14.90;99.90;;;;;;5093340;28;20059;-74
2023/09/02 04:18:09;;;;;;;8.38;6.35;;;14.90;99.90;;;;;;5092983;28;20012;-74
2023/09/02 04:20:35;;;;;;;10.10;6.38;;;14.90;99.90;;;;;;5110581;28;20028;-74
2023/09/02 04:23:01;;;;;;;7.50;5.93;;;14.80;99.90;;;;;;5094674;28;20031;-74
2023/09/02 04:25:42;;;;;;;;;;;;;;;;;;;;;
2023/09/02 04:28:08;;;;;;;9.75;5.45;;;14.90;99.90;;;;;;5115136;28;20031;-74
2023/09/02 04:30:33;;;;;;;8.82;5.97;;;14.90;99.90;;;;;;5114716;28;20047;-74
2023/09/02 04:32:59;;;;;;;8.73;5.95;;;14.90;99.90;;;;;;5094995;28;20126;-74
2023/09/02 04:35:25;;;;;;;10.68;5.88;;;14.80;99.90;;;;;;5095156;28;20027;-74
2023/09/02 04:37:50;;;;;;;11.27;6.40;;;14.80;99.90;;;;;;5094641;28;20100;-75
2023/09/02 04:40:16;;;;;;;9.57;6.05;;;14.70;99.90;;;;;;5095311;28;20020;-74
2023/09/02 04:42:47;;;;;;;11.18;7.50;;;14.80;99.90;;;;;;5095134;28;20049;-74
2023/09/02 04:45:12;;;;;;;16.75;7.07;;;14.80;99.90;;;;;;5095633;28;20034;-74
2023/09/02 04:47:38;;;;;;;17.40;7.72;;;14.80;99.90;;;;;;5094391;28;21160;-74
2023/09/02 04:50:07;;;;;;;10.45;6.45;;;14.70;99.90;;;;;;5114632;28;20055;-74
2023/09/02 04:52:33;;;;;;;14.25;8.30;;;14.80;99.90;;;;;;5096713;28;20040;-74
2023/09/02 04:54:59;;;;;;;20.52;10.30;;;14.80;99.90;;;;;;5095394;28;20031;-74
2023/09/02 04:57:24;;;;;;;24.27;10.50;;;14.70;99.90;;;;;;5094935;28;20103;-74
2023/09/02 04:59:50;;;;;;;24.67;11.43;;;14.80;99.90;;;;;;5096058;28;21025;-74
2023/09/02 05:02:19;;;;;;;25.08;11.52;;;14.80;99.90;;;;;;5093864;28;20028;-74
2023/09/02 05:04:44;;;;;;;22.48;11.75;;;14.80;99.90;;;;;;5096542;28;20076;-74
2023/09/02 05:07:10;;;;;;;25.17;12.68;;;14.80;99.90;;;;;;5094912;28;20031;-74
2023/09/02 05:09:38;;;;;;;23.45;12.63;;;14.80;99.90;;;;;;5096446;28;20024;-74
2023/09/02 05:12:04;;;;;;;20.38;11.27;;;14.80;99.90;;;;;;5114217;28;20029;-74
2023/09/02 05:14:39;;;;;;;22.30;11.85;;;14.70;99.90;;;;;;5112765;28;20130;-74
2023/09/02 05:17:04;;;;;;;23.23;11.88;;;14.80;99.90;;;;;;5113638;28;20036;-74
2023/09/02 05:19:30;;;;;;;24.77;12.63;;;14.80;99.90;;;;;;5096635;28;20063;-74
2023/09/02 05:21:59;;;;;;;29.02;12.20;;;14.90;99.90;;;;;;5112612;28;20028;-74
2023/09/02 05:24:27;;;;;;;23.52;13.20;;;14.80;99.90;;;;;;5113707;28;20055;-73
2023/09/02 05:26:52;;;;;;;25.50;12.57;;;14.80;99.90;;;;;;5095091;28;20040;-74
2023/09/02 05:29:18;;;;;;;27.00;13.05;;;14.70;99.90;;;;;;5093268;28;20028;-74
2023/09/02 05:31:44;;;;;;;34.92;14.15;;;14.80;99.90;;;;;;5092307;28;20043;-76
2023/09/02 05:34:12;;;;;;;25.08;13.07;;;14.80;99.90;;;;;;5092119;28;20212;-75
2023/09/02 05:36:39;;;;;;;26.77;14.45;;;14.90;99.90;;;;;;5112514;28;20052;-74
2023/09/02 05:39:07;;;;;;;27.02;13.88;;;14.90;99.90;;;;;;5112377;28;20157;-74
2023/09/02 05:41:33;;;;;;;26.70;14.88;;;15.00;99.90;;;;;;5092412;28;20055;-74
2023/09/02 05:43:59;;;;;;;30.35;13.75;;;15.00;99.90;;;;;;5113098;28;20020;-74
2023/09/02 05:46:25;;;;;;;26.10;14.35;;;15.00;99.90;;;;;;5093815;28;20028;-74
2023/09/02 05:48:51;;;;;;;26.30;14.52;;;15.00;99.90;;;;;;5112388;28;20046;-74
2023/09/02 05:51:16;;;;;;;24.25;13.85;;;15.10;99.90;;;;;;5113058;28;20020;-74
2023/09/02 05:53:44;;;;;;;27.88;14.13;;;15.10;99.90;;;;;;5094939;28;20032;-74
2023/09/02 05:56:10;;;;;;;23.48;14.30;;;15.10;99.90;;;;;;5093880;28;20032;-74
2023/09/02 05:58:35;;;;;;;27.42;15.30;;;15.10;99.90;;;;;;5095285;28;20186;-74
2023/09/02 06:01:05;;;;;;;28.27;16.42;;;15.20;99.90;;;;;;5095034;28;20020;-74
2023/09/02 06:03:30;;;;;;;37.35;20.73;;;15.20;99.90;;;;;;5094422;28;20024;-74
2023/09/02 06:05:57;;;;;;;31.77;15.93;;;15.20;99.90;;;;;;5113212;28;20023;-73
2023/09/02 06:08:23;;;;;;;31.90;15.60;;;15.20;99.90;;;;;;5095287;28;20036;-74
2023/09/02 06:11:00;;;;;;;30.33;15.38;;;15.30;99.90;;;;;;5113126;28;20020;-74
2023/09/02 06:13:26;;;;;;;33.72;17.17;;;15.30;99.90;;;;;;5089979;28;20012;-74
2023/09/02 06:15:52;;;;;;;29.13;15.82;;;15.30;99.90;;;;;;5095910;28;20027;-74
2023/09/02 06:18:17;;;;;;;27.88;16.02;;;15.40;99.90;;;;;;5093758;28;20009;-74
2023/09/02 06:20:43;;;;;;;24.95;14.27;;;15.40;99.90;;;;;;5113095;28;20032;-74
2023/09/02 06:23:09;;;;;;;31.85;15.65;;;15.40;99.90;;;;;;5094750;28;20020;-74
2023/09/02 06:25:37;;;;;;;31.92;15.55;;;15.40;99.90;;;;;;5092450;28;20024;-74
2023/09/02 06:28:03;;;;;;;33.33;16.73;;;15.50;99.90;;;;;;5113129;28;20050;-74
2023/09/02 06:30:29;;;;;;;30.50;15.38;;;15.50;99.90;;;;;;5113385;28;20016;-74
2023/09/02 06:32:57;;;;;;;27.70;15.82;;;15.60;99.90;;;;;;5112596;28;20024;-74
2023/09/02 06:35:22;;;;;;;28.35;15.48;;;15.60;99.90;;;;;;5092884;28;20035;-74
2023/09/02 06:37:49;;;;;;;31.85;16.02;;;15.60;99.90;;;;;;5094357;28;20240;-74
2023/09/02 06:40:15;;;;;;;28.73;15.35;;;15.60;99.90;;;;;;5095357;28;20017;-74
2023/09/02 06:42:41;;;;;;;32.70;17.13;;;15.60;99.90;;;;;;5094634;28;20043;-74
2023/09/02 06:45:07;;;;;;;37.97;18.48;;;15.70;99.90;;;;;;5092736;28;20040;-75
2023/09/02 06:47:33;;;;;;;34.50;18.42;;;15.70;99.90;;;;;;5093697;28;20035;-74
2023/09/02 06:49:58;;;;;;;35.30;18.45;;;15.70;99.90;;;;;;5093505;28;20076;-74
2023/09/02 06:52:24;;;;;;;33.35;18.80;;;15.80;99.90;;;;;;5112716;28;20027;-74
2023/09/02 06:54:50;;;;;;;30.77;17.75;;;15.80;99.90;;;;;;5112706;28;20035;-74
2023/09/02 06:57:16;;;;;;;35.30;17.67;;;15.90;99.90;;;;;;5093318;28;20036;-75
2023/09/02 06:59:41;;;;;;;28.58;16.77;;;15.90;99.90;;;;;;5112699;28;20046;-74
2023/09/02 07:02:07;;;;;;;29.80;17.55;;;16.00;99.90;;;;;;5094479;28;20036;-75
2023/09/02 07:04:33;;;;;;;29.42;16.92;;;16.00;99.90;;;;;;5092985;28;20039;-74
2023/09/02 07:06:59;;;;;;;27.73;17.48;;;16.00;99.90;;;;;;5092443;28;20023;-73
2023/09/02 07:09:25;;;;;;;27.88;16.05;;;16.10;99.90;;;;;;5092911;28;20012;-74
2023/09/02 07:11:52;;;;;;;24.95;16.85;;;16.10;99.90;;;;;;5093663;28;20019;-74
2023/09/02 07:14:18;;;;;;;27.45;18.10;;;16.10;99.90;;;;;;5092707;28;20058;-74
2023/09/02 07:16:44;;;;;;;32.22;17.98;;;16.10;99.90;;;;;;5092210;28;20035;-74
2023/09/02 07:19:09;;;;;;;25.15;15.90;;;16.20;99.90;;;;;;5093652;28;20015;-74
2023/09/02 07:21:35;;;;;;;25.05;16.33;;;16.20;99.90;;;;;;5113152;28;20039;-76
2023/09/02 07:24:01;;;;;;;25.00;16.13;;;16.30;99.90;;;;;;5113000;28;20004;-75
2023/09/02 07:26:29;;;;;;;25.13;15.93;;;16.30;99.90;;;;;;5093531;28;20013;-74
2023/09/02 07:28:54;;;;;;;21.67;15.23;;;16.50;99.90;;;;;;5094791;28;20045;-74
2023/09/02 07:31:20;;;;;;;21.20;15.82;;;16.50;99.90;;;;;;5094951;28;20016;-75
2023/09/02 07:33:46;;;;;;;27.60;18.63;;;16.60;99.90;;;;;;5112868;28;20024;-74
2023/09/02 07:36:13;;;;;;;23.00;16.83;;;16.70;99.90;;;;;;5112840;28;20035;-75
2023/09/02 07:38:39;;;;;;;26.08;16.30;;;16.70;99.90;;;;;;5095481;28;20024;-74
2023/09/02 07:41:05;;;;;;;25.20;16.85;;;16.80;99.90;;;;;;5112486;28;20012;-75
2023/09/02 07:43:31;;;;;;;20.83;15.40;;;16.80;99.90;;;;;;5088361;28;20043;-75
2023/09/02 07:45:57;;;;;;;20.95;14.43;;;16.80;99.90;;;;;;5081724;28;20044;-79
2023/09/02 07:48:23;;;;;;;20.30;14.77;;;16.90;99.90;;;;;;5080313;28;20048;-80
2023/09/02 07:50:48;;;;;;;20.90;14.02;;;16.80;99.90;;;;;;5067892;28;20033;-83
2023/09/02 07:53:14;;;;;;;22.45;14.32;;;16.90;99.90;;;;;;5070572;28;20032;-79
2023/09/02 07:55:40;;;;;;;20.95;14.45;;;16.90;99.90;;;;;;5068653;28;20033;-85
2023/09/02 07:58:06;;;;;;;18.40;13.68;;;17.00;99.90;;;;;;5071300;28;20027;-81
2023/09/02 08:00:36;;;;;;;20.52;14.05;;;17.00;99.90;;;;;;5072972;28;20515;-85
2023/09/02 08:03:03;;;;;;;17.48;12.93;;;17.10;99.90;;;;;;5067451;28;20051;-84
2023/09/02 08:05:29;;;;;;;18.17;13.43;;;17.10;99.90;;;;;;5089812;28;20045;-85
2023/09/02 08:07:55;;;;;;;17.75;13.18;;;17.10;99.90;;;;;;5089532;28;20028;-84
2023/09/02 08:10:21;;;;;;;16.95;11.27;;;17.20;99.90;;;;;;5090963;28;20569;-85
2023/09/02 08:12:47;;;;;;;15.43;11.68;;;17.20;99.90;;;;;;5069143;28;20134;-86
2023/09/02 08:15:13;;;;;;;15.20;10.73;;;17.30;99.90;;;;;;5072656;28;20034;-85
2023/09/02 08:17:41;;;;;;;13.60;10.05;;;17.30;99.90;;;;;;5090207;28;20036;-87
2023/09/02 08:20:08;;;;;;;19.23;10.25;;;17.40;99.90;;;;;;5071283;28;20039;-84
2023/09/02 08:22:39;;;;;;;13.82;9.23;;;17.40;99.90;;;;;;5089535;28;20059;-86
2023/09/02 08:25:06;;;;;;;14.15;9.48;;;17.50;99.90;;;;;;5072329;28;20031;-86
2023/09/02 08:27:32;;;;;;;13.50;9.02;;;17.50;99.90;;;;;;5089157;28;20055;-88
2023/09/02 08:29:57;;;;;;;13.90;7.88;;;17.60;99.90;;;;;;5090358;28;20452;-86
2023/09/02 08:32:25;;;;;;;17.42;8.07;;;17.70;99.90;;;;;;5090389;28;20039;-86
2023/09/02 08:34:51;;;;;;;13.15;8.00;;;17.70;99.90;;;;;;5070640;28;20036;-88
2023/09/02 08:37:19;;;;;;;11.60;7.43;;;17.80;99.90;;;;;;5089499;28;20028;-85
2023/09/02 08:39:44;;;;;;;13.77;7.68;;;17.80;99.90;;;;;;5089551;28;20028;-90
2023/09/02 08:42:16;;;;;;;8.90;6.80;;;17.80;99.90;;;;;;5088618;28;20046;-85
2023/09/02 08:44:47;;;;;;;8.57;6.65;;;17.80;99.90;;;;;;5089356;28;20025;-89
2023/09/02 08:47:15;;;;;;;12.30;8.00;;;17.80;99.90;;;;;;5089530;28;20047;-89
2023/09/02 08:49:44;;;;;;;9.18;6.78;;;17.80;99.90;;;;;;5071084;28;20027;-84
2023/09/02 08:52:13;;;;;;;8.90;6.95;;;17.90;99.90;;;;;;5089894;28;20036;-86
2023/09/02 08:54:44;;;;;;;12.52;6.60;;;17.90;99.90;;;;;;5070293;28;20032;-84
2023/09/02 08:57:15;;;;;;;9.02;6.45;;;18.00;99.90;;;;;;5089128;28;20031;-86
2023/09/02 08:59:41;;;;;;;10.93;6.38;;;18.00;99.90;;;;;;5067776;28;20437;-84
2023/09/02 09:02:14;;;;;;;7.90;5.72;;;18.00;99.90;;;;;;5070921;28;20043;-88
2023/09/02 09:04:40;;;;;;;8.07;6.35;;;18.10;99.90;;;;;;5065185;28;20032;-87
2023/09/02 09:07:08;;;;;;;7.43;5.80;;;18.10;99.90;;;;;;5069145;28;20024;-82
2023/09/02 09:09:36;;;;;;;11.25;7.85;;;18.10;99.90;;;;;;5070100;28;20032;-89
2023/09/02 09:12:06;;;;;;;10.52;6.90;;;18.20;99.90;;;;;;5068505;28;20040;-89
2023/09/02 09:14:37;;;;;;;7.68;6.65;;;18.30;99.90;;;;;;5089364;28;20113;-90
2023/09/02 09:17:04;;;;;;;10.77;5.97;;;18.40;99.90;;;;;;5071137;28;20085;-88
2023/09/02 09:19:30;;;;;;;6.63;5.88;;;18.40;99.90;;;;;;5071288;28;20039;-86
2023/09/02 09:21:56;;;;;;;12.20;6.40;;;18.50;99.90;;;;;;5070440;28;20020;-89
2023/09/02 09:24:24;;;;;;;11.52;6.63;;;18.50;99.90;;;;;;5071600;28;20016;-85
2023/09/02 09:26:50;;;;;;;7.20;5.00;;;18.60;99.90;;;;;;5073995;28;20024;-88
2023/09/02 09:29:18;;;;;;;10.00;5.30;;;18.70;99.90;;;;;;5070704;28;20031;-88
2023/09/02 09:31:47;;;;;;;7.10;5.35;;;18.80;99.90;;;;;;5070844;28;20042;-89
2023/09/02 09:34:15;;;;;;;4.63;3.97;;;18.80;99.90;;;;;;5090730;28;20027;-85
2023/09/02 09:36:44;;;;;;;5.90;4.22;;;18.80;99.90;;;;;;5071610;28;20039;-88
2023/09/02 09:39:09;;;;;;;4.38;3.90;;;18.80;99.90;;;;;;5088525;28;20028;-87
2023/09/02 09:41:43;;;;;;;6.90;3.42;;;18.90;99.90;;;;;;5073951;28;20162;-86
2023/09/02 09:44:17;;;;;;;4.30;3.33;;;19.00;99.90;;;;;;5067529;28;20038;-86
2023/09/02 09:46:51;;;;;;;4.95;2.60;;;19.00;99.90;;;;;;5071932;28;20452;-86
2023/09/02 09:49:27;;;;;;;5.93;3.35;;;19.00;99.90;;;;;;5089765;28;20016;-83
2023/09/02 09:52:13;;;;;;;6.00;2.78;;;19.00;99.90;;;;;;5071548;28;20024;-86
2023/09/02 09:54:42;;;;;;;3.78;3.28;;;19.00;99.90;;;;;;5070098;28;20032;-87
2023/09/02 09:57:14;;;;;;;4.72;3.10;;;19.00;99.90;;;;;;5087345;28;20024;-86
2023/09/02 09:59:50;;;;;;;3.08;2.22;;;19.10;99.90;;;;;;5070017;28;20024;-82
2023/09/02 10:02:17;;;;;;;5.00;2.38;;;19.10;99.90;;;;;;5070249;28;20032;-86
2023/09/02 10:04:51;;;;;;;2.33;2.00;;;19.20;99.90;;;;;;5088432;28;20095;-88
2023/09/02 10:07:31;;;;;;;3.03;2.40;;;19.30;99.90;;;;;;5088418;28;20088;-87
2023/09/02 10:10:00;;;;;;;2.85;2.13;;;19.30;99.90;;;;;;5068914;28;20028;-88
2023/09/02 10:12:25;;;;;;;3.28;1.70;;;19.40;99.90;;;;;;5087555;28;20105;-86
2023/09/02 10:14:51;;;;;;;4.43;1.80;;;19.40;99.90;;;;;;5068991;28;20035;-88
2023/09/02 10:17:20;;;;;;;3.72;2.00;;;19.50;99.90;;;;;;5069941;28;20070;-86
2023/09/02 10:19:48;;;;;;;2.35;1.75;;;19.60;99.90;;;;;;5087837;28;20051;-86
2023/09/02 10:22:18;;;;;;;2.78;1.90;;;19.60;99.90;;;;;;5070247;28;20495;-84
2023/09/02 10:24:57;;;;;;;1.83;1.40;;;19.70;99.90;;;;;;5069798;28;20065;-86
2023/09/02 10:27:29;;;;;;;2.97;1.70;;;19.80;99.90;;;;;;5070813;28;20175;-88
2023/09/02 10:30:00;;;;;;;;;;;19.70;99.90;;;;;;5070807;28;20081;-86
2023/09/02 10:32:30;;;;;;;3.95;1.50;;;19.70;99.90;;;;;;5069067;28;19915;-89
2023/09/02 10:35:07;;;;;;;4.22;1.65;;;19.80;99.90;;;;;;5068642;28;20117;-88
2023/09/02 10:37:52;;;;;;;4.20;1.48;;;19.90;99.90;;;;;;5069719;28;21062;-83
2023/09/02 10:40:22;;;;;;;1.67;1.23;;;20.00;99.90;;;;;;5087650;28;20032;-85
2023/09/02 10:42:52;;;;;;;1.88;1.17;;;20.10;99.90;;;;;;5069249;28;20032;-84
2023/09/02 10:45:21;;;;;;;2.45;1.42;;;20.30;99.90;;;;;;5087511;28;20028;-88
2023/09/02 10:47:50;;;;;;;3.45;1.42;;;20.50;99.90;;;;;;5087610;28;20034;-89
2023/09/02 10:50:18;;;;;;;2.33;1.30;;;20.60;99.90;;;;;;5069852;28;20035;-83
2023/09/02 10:52:44;;;;;;;1.38;1.08;;;20.70;99.90;;;;;;5068895;28;20618;-87
2023/09/02 10:55:10;;;;;;;3.65;1.55;;;20.70;99.90;;;;;;5069746;28;20027;-83
2023/09/02 10:57:55;;;;;;;4.45;1.35;;;20.80;99.90;;;;;;5067137;28;20027;-87
2023/09/02 11:00:25;;;;;;;2.65;1.42;;;20.90;99.90;;;;;;5069619;28;20031;-85
2023/09/02 11:02:56;;;;;;;2.97;1.55;;;21.10;99.90;;;;;;5087950;28;20023;-85
2023/09/02 11:05:23;;;;;;;5.10;1.60;;;21.10;99.90;;;;;;5086295;28;20169;-85
2023/09/02 11:07:49;;;;;;;3.35;1.38;;;21.00;99.90;;;;;;5064399;28;20035;-86
2023/09/02 11:10:18;;;;;;;2.15;1.10;;;21.10;99.90;;;;;;5069290;28;20074;-87
2023/09/02 11:12:59;;;;;;;1.70;1.23;;;21.30;99.90;;;;;;5087192;28;20047;-82
2023/09/02 11:15:28;;;;;;;2.88;1.40;;;21.20;99.90;;;;;;5067935;28;20043;-84
2023/09/02 11:17:54;;;;;;;2.03;1.30;;;21.30;99.90;;;;;;5087483;28;20020;-85
2023/09/02 11:20:25;;;;;;;3.08;1.23;;;21.40;99.90;;;;;;5086829;28;20457;-83
2023/09/02 11:23:04;;;;;;;2.20;1.27;;;21.50;99.90;;;;;;5068203;28;20048;-85
2023/09/02 11:25:43;;;;;;;3.10;1.05;;;21.50;99.90;;;;;;5087234;28;20475;-81
2023/09/02 11:28:17;;;;;;;3.60;1.60;;;21.60;99.90;;;;;;5067170;28;20039;-84
2023/09/02 11:31:03;;;;;;;4.20;1.30;;;21.50;99.90;;;;;;5068052;28;20026;-86
2023/09/02 11:33:28;;;;;;;2.50;1.50;;;21.60;99.90;;;;;;5087014;28;20024;-87
2023/09/02 11:36:06;;;;;;;2.08;1.60;;;21.70;99.90;;;;;;5067684;28;20348;-84
2023/09/02 11:38:33;;;;;;;1.75;1.10;;;21.80;99.90;;;;;;5086483;28;20689;-86
2023/09/02 11:40:59;;;;;;;2.17;1.20;;;21.90;99.90;;;;;;5086440;28;20020;-85
2023/09/02 11:43:31;;;;;;;5.28;1.77;;;22.10;99.90;;;;;;5069292;28;20047;-87
2023/09/02 11:45:58;;;;;;;4.45;1.85;;;22.10;99.90;;;;;;5066968;28;20032;-86
2023/09/02 11:48:25;;;;;;;4.13;1.13;;;22.20;99.90;;;;;;5068592;28;20047;-86
2023/09/02 11:50:53;;;;;;;3.33;1.50;;;22.30;99.90;;;;;;5067519;28;20032;-83
2023/09/02 11:53:19;;;;;;;3.15;1.00;;;22.20;99.90;;;;;;5068893;28;20075;-84
2023/09/02 11:55:45;;;;;;;1.85;1.30;;;22.20;99.90;;;;;;5090077;28;20081;-83
2023/09/02 11:58:14;;;;;;;2.00;0.82;;;22.20;99.90;;;;;;5086717;28;20111;-86
2023/09/02 12:00:45;;;;;;;2.15;0.95;;;22.40;99.90;;;;;;5068923;28;20031;-83
2023/09/02 12:03:14;;;;;;;4.20;0.90;;;22.60;99.90;;;;;;5070946;28;20042;-86
2023/09/02 12:05:48;;;;;;;2.30;0.88;;;22.50;99.90;;;;;;5085236;28;20032;-83
2023/09/02 12:08:17;;;;;;;2.20;1.00;;;22.60;99.90;;;;;;5067298;28;20581;-87
2023/09/02 12:10:45;;;;;;;1.30;0.90;;;22.80;99.90;;;;;;5086765;28;20032;-84
2023/09/02 12:13:13;;;;;;;2.25;1.23;;;22.80;99.90;;;;;;5063561;28;20020;-82
2023/09/02 12:15:40;;;;;;;3.78;1.20;;;22.90;99.90;;;;;;5064405;28;20028;-86
2023/09/02 12:18:06;;;;;;;4.30;1.23;;;23.00;99.90;;;;;;5069224;28;20028;-87
2023/09/02 12:20:32;;;;;;;2.35;1.48;;;23.10;99.90;;;;;;5066446;28;20039;-84
2023/09/02 12:22:59;;;;;;;2.40;1.20;;;23.20;99.90;;;;;;5065570;28;20668;-84
2023/09/02 12:25:25;;;;;;;1.75;1.13;;;23.60;99.90;;;;;;5065237;28;20032;-85
2023/09/02 12:27:53;;;;;;;3.33;1.35;;;23.70;99.90;;;;;;5085182;28;20028;-81
2023/09/02 12:30:31;;;;;;;3.88;1.23;;;23.80;99.90;;;;;;5068489;28;20028;-84
2023/09/02 12:32:57;;;;;;;5.22;1.40;;;23.60;99.90;;;;;;5061778;28;20035;-85
2023/09/02 12:35:23;;;;;;;1.90;1.10;;;23.50;99.90;;;;;;5086995;28;20036;-81
2023/09/02 12:38:10;;;;;;;3.25;1.42;;;23.30;99.90;;;;;;5089011;28;20691;-85
2023/09/02 12:40:38;;;;;;;2.50;1.00;;;23.30;99.90;;;;;;5067579;28;20070;-82
2023/09/02 12:43:04;;;;;;;1.67;0.98;;;23.20;99.90;;;;;;5069557;28;20028;-85
2023/09/02 12:45:40;;;;;;;2.42;1.00;;;23.30;99.90;;;;;;5092523;28;20050;-80